createdAt,value
2017-04-15T00:00:28.768Z,22.55
2017-04-15T00:01:28.790Z,23.23
2017-04-15T00:02:28.932Z,22.55
2017-04-15T00:03:28.959Z,22.23
2017-04-15T00:04:29.168Z,22.35
2017-04-15T00:05:29.617Z,22.85
2017-04-15T00:06:29.752Z,24.97
2017-04-15T00:07:29.905Z,24.17
2017-04-15T00:08:29.921Z,22.63
2017-04-15T00:09:29.941Z,24.12
2017-04-15T00:10:30.394Z,22.40
2017-04-15T00:11:30.491Z,22.22
2017-04-15T00:12:30.604Z,21.80
2017-04-15T00:13:30.765Z,23.33
2017-04-15T00:14:30.759Z,21.48
2017-04-15T00:15:32.088Z,20.87
2017-04-15T00:16:32.905Z,20.55
2017-04-15T00:17:33.387Z,19.88
2017-04-15T00:18:33.389Z,23.82
2017-04-15T00:19:33.555Z,21.07
2017-04-15T00:20:33.850Z,23.20
2017-04-15T00:21:33.877Z,24.77
2017-04-15T00:22:34.125Z,23.95
2017-04-15T00:23:35.291Z,21.03
2017-04-15T00:24:35.578Z,18.38
2017-04-15T00:25:36.142Z,23.42
2017-04-15T00:26:37.072Z,23.35
2017-04-15T00:27:37.098Z,22.95
2017-04-15T00:28:37.410Z,19.38
2017-04-15T00:29:38.005Z,25.78
2017-04-15T00:30:38.461Z,19.87
2017-04-15T00:31:38.509Z,19.10
2017-04-15T00:32:38.687Z,20.62
2017-04-15T00:33:39.402Z,20.17
2017-04-15T00:34:39.618Z,19.52
2017-04-15T00:35:39.947Z,17.40
2017-04-15T00:36:40.255Z,19.35
2017-04-15T00:37:43.296Z,21.00
2017-04-15T00:38:44.129Z,19.20
2017-04-15T00:39:44.173Z,23.37
2017-04-15T00:40:44.655Z,26.38
2017-04-15T00:41:44.690Z,19.62
2017-04-15T00:42:44.718Z,21.80
2017-04-15T00:43:44.876Z,19.35
2017-04-15T00:44:44.905Z,26.37
2017-04-15T00:45:45.333Z,20.27
2017-04-15T00:46:45.518Z,18.98
2017-04-15T00:47:45.647Z,27.15
2017-04-15T00:48:45.741Z,19.17
2017-04-15T00:49:45.792Z,18.30
2017-04-15T00:50:46.185Z,19.97
2017-04-15T00:51:46.268Z,18.70
2017-04-15T00:52:46.291Z,19.33
2017-04-15T00:53:46.291Z,27.48
2017-04-15T00:54:46.303Z,19.82
2017-04-15T00:55:46.721Z,17.92
2017-04-15T00:56:47.495Z,19.28
2017-04-15T00:57:54.298Z,19.60
2017-04-15T00:58:54.534Z,23.47
2017-04-15T00:59:54.611Z,19.48
2017-04-15T01:00:54.774Z,24.02
2017-04-15T01:01:54.813Z,23.83
2017-04-15T01:02:54.885Z,19.15
2017-04-15T01:03:55.918Z,18.38
2017-04-15T01:04:55.952Z,17.93
2017-04-15T01:05:57.229Z,19.47
2017-04-15T01:06:57.268Z,20.63
2017-04-15T01:07:57.411Z,19.08
2017-04-15T01:08:57.478Z,22.32
2017-04-15T01:09:57.505Z,19.15
2017-04-15T01:10:57.930Z,20.03
2017-04-15T01:11:58.003Z,18.80
2017-04-15T01:12:58.130Z,22.40
2017-04-15T01:13:58.207Z,19.50
2017-04-15T01:14:58.199Z,35.63
2017-04-15T01:15:58.636Z,21.03
2017-04-15T01:16:59.421Z,23.67
2017-04-15T01:18:00.255Z,23.28
2017-04-15T01:19:00.296Z,20.45
2017-04-15T01:20:00.579Z,25.97
2017-04-15T01:21:00.914Z,31.22
2017-04-15T01:22:01.023Z,24.25
2017-04-15T01:23:01.055Z,22.63
2017-04-15T01:24:01.114Z,25.92
2017-04-15T01:25:01.218Z,20.52
2017-04-15T01:26:01.545Z,26.27
2017-04-15T01:27:01.613Z,21.62
2017-04-15T01:28:01.621Z,22.87
2017-04-15T01:29:01.656Z,23.63
2017-04-15T01:30:01.723Z,25.58
2017-04-15T01:31:02.090Z,22.35
2017-04-15T01:32:02.157Z,25.35
2017-04-15T01:33:02.154Z,22.78
2017-04-15T01:34:02.169Z,24.60
2017-04-15T01:35:02.196Z,21.60
2017-04-15T01:36:03.302Z,22.47
2017-04-15T01:37:03.345Z,26.25
2017-04-15T01:38:03.369Z,28.53
2017-04-15T01:39:03.414Z,25.73
2017-04-15T01:40:03.518Z,25.63
2017-04-15T01:41:03.882Z,25.90
2017-04-15T01:42:03.917Z,24.35
2017-04-15T01:43:04.742Z,24.65
2017-04-15T01:44:04.813Z,23.82
2017-04-15T01:45:04.903Z,27.05
2017-04-15T01:46:05.262Z,23.20
2017-04-15T01:47:05.348Z,22.88
2017-04-15T01:48:05.462Z,26.80
2017-04-15T01:49:05.570Z,25.82
2017-04-15T01:50:05.630Z,24.33
2017-04-15T01:51:06.012Z,27.15
2017-04-15T01:52:06.028Z,29.70
2017-04-15T01:53:06.157Z,25.32
2017-04-15T01:54:06.247Z,22.75
2017-04-15T01:55:06.432Z,24.38
2017-04-15T01:56:06.876Z,23.03
2017-04-15T01:57:06.911Z,23.53
2017-04-15T01:58:06.906Z,24.80
2017-04-15T01:59:06.960Z,27.32
2017-04-15T02:00:07.138Z,31.42
2017-04-15T02:01:07.515Z,30.08
2017-04-15T02:02:07.553Z,26.88
2017-04-15T02:03:07.591Z,26.23
2017-04-15T02:04:07.672Z,26.22
2017-04-15T02:05:07.728Z,29.03
2017-04-15T02:06:08.047Z,28.82
2017-04-15T02:07:08.134Z,28.53
2017-04-15T02:08:08.222Z,32.02
2017-04-15T02:09:08.234Z,38.02
2017-04-15T02:10:08.273Z,31.68
2017-04-15T02:11:08.586Z,39.43
2017-04-15T02:12:08.649Z,33.53
2017-04-15T02:13:08.667Z,33.87
2017-04-15T02:14:08.643Z,33.23
2017-04-15T02:15:08.712Z,31.25
2017-04-15T02:16:09.251Z,31.33
2017-04-15T02:17:10.024Z,32.68
2017-04-15T02:18:10.099Z,32.15
2017-04-15T02:19:10.150Z,33.92
2017-04-15T02:20:10.220Z,30.45
2017-04-15T02:21:10.518Z,31.87
2017-04-15T02:22:10.520Z,30.02
2017-04-15T02:23:11.278Z,33.23
2017-04-15T02:24:11.326Z,36.93
2017-04-15T02:25:11.393Z,37.45
2017-04-15T02:26:11.782Z,36.18
2017-04-15T02:27:11.877Z,35.65
2017-04-15T02:28:11.915Z,36.92
2017-04-15T02:29:11.956Z,34.00
2017-04-15T02:30:12.105Z,38.80
2017-04-15T02:31:12.549Z,36.30
2017-04-15T02:32:12.709Z,34.13
2017-04-15T02:33:12.770Z,36.62
2017-04-15T02:34:12.786Z,37.12
2017-04-15T02:35:12.892Z,40.23
2017-04-15T02:36:13.384Z,32.63
2017-04-15T02:37:13.478Z,38.32
2017-04-15T02:38:13.590Z,34.83
2017-04-15T02:39:14.494Z,42.25
2017-04-15T02:40:14.546Z,43.67
2017-04-15T02:41:14.936Z,42.62
2017-04-15T02:42:14.956Z,40.87
2017-04-15T02:43:15.055Z,38.17
2017-04-15T02:44:15.107Z,42.00
2017-04-15T02:45:15.170Z,44.93
2017-04-15T02:46:15.809Z,45.08
2017-04-15T02:47:15.865Z,44.33
2017-04-15T02:48:15.919Z,38.20
2017-04-15T02:49:16.789Z,41.35
2017-04-15T02:50:16.910Z,46.58
2017-04-15T02:51:17.455Z,41.92
2017-04-15T02:52:17.492Z,45.33
2017-04-15T02:53:17.527Z,49.30
2017-04-15T02:54:18.625Z,44.18
2017-04-15T02:55:19.396Z,41.90
2017-04-15T02:56:19.749Z,47.65
2017-04-15T02:57:19.866Z,42.38
2017-04-15T02:58:20.724Z,46.40
2017-04-15T02:59:20.719Z,42.73
2017-04-15T03:00:20.807Z,49.13
2017-04-15T03:01:21.201Z,54.88
2017-04-15T03:02:21.233Z,56.97
2017-04-15T03:03:21.301Z,56.48
2017-04-15T03:04:21.400Z,63.22
2017-04-15T03:05:21.358Z,52.95
2017-04-15T03:06:21.862Z,51.97
2017-04-15T03:07:22.659Z,58.10
2017-04-15T03:08:22.748Z,59.83
2017-04-15T03:09:22.764Z,51.45
2017-04-15T03:10:22.792Z,60.20
2017-04-15T03:11:23.227Z,65.12
2017-04-15T03:12:24.022Z,57.17
2017-04-15T03:13:24.146Z,51.55
2017-04-15T03:14:24.163Z,57.02
2017-04-15T03:15:24.183Z,54.73
2017-04-15T03:16:24.594Z,63.63
2017-04-15T03:17:24.653Z,59.82
2017-04-15T03:18:25.433Z,49.82
2017-04-15T03:19:25.468Z,47.72
2017-04-15T03:20:25.517Z,54.95
2017-04-15T03:21:25.841Z,58.23
2017-04-15T03:22:25.851Z,59.43
2017-04-15T03:23:26.661Z,63.45
2017-04-15T03:24:26.729Z,59.65
2017-04-15T03:25:26.742Z,66.00
2017-04-15T03:26:27.107Z,59.85
2017-04-15T03:27:27.890Z,61.12
2017-04-15T03:28:27.937Z,56.03
2017-04-15T03:29:28.701Z,66.23
2017-04-15T03:30:28.862Z,68.48
2017-04-15T03:31:29.287Z,69.35
2017-04-15T03:32:29.514Z,62.70
2017-04-15T03:33:30.302Z,70.17
2017-04-15T03:34:30.358Z,75.67
2017-04-15T03:35:30.405Z,63.85
2017-04-15T03:36:30.729Z,65.95
2017-04-15T03:37:30.860Z,56.03
2017-04-15T03:38:30.890Z,51.33
2017-04-15T03:39:30.998Z,54.83
2017-04-15T03:40:31.019Z,56.98
2017-04-15T03:41:31.379Z,67.78
2017-04-15T03:42:31.416Z,62.87
2017-04-15T03:43:31.528Z,60.02
2017-04-15T03:44:31.598Z,58.80
2017-04-15T03:45:31.641Z,56.03
2017-04-15T03:46:32.760Z,65.52
2017-04-15T03:47:33.000Z,68.22
2017-04-15T03:48:33.042Z,54.55
2017-04-15T03:49:33.566Z,57.13
2017-04-15T03:50:33.614Z,65.82
2017-04-15T03:51:34.961Z,70.03
2017-04-15T03:52:35.022Z,68.55
2017-04-15T03:53:35.091Z,60.35
2017-04-15T03:54:35.218Z,66.88
2017-04-15T03:55:35.265Z,68.95
2017-04-15T03:56:35.607Z,58.30
2017-04-15T03:57:35.632Z,56.50
2017-04-15T03:58:35.700Z,51.82
2017-04-15T03:59:35.698Z,53.77
2017-04-15T04:00:35.772Z,50.72
2017-04-15T04:01:36.137Z,55.05
2017-04-15T04:02:36.172Z,59.25
2017-04-15T04:03:36.265Z,55.93
2017-04-15T04:04:36.374Z,58.92
2017-04-15T04:05:36.382Z,54.05
2017-04-15T04:06:36.690Z,53.58
2017-04-15T04:07:36.755Z,56.42
2017-04-15T04:08:36.768Z,52.47
2017-04-15T04:09:36.778Z,58.12
2017-04-15T04:10:36.826Z,61.60
2017-04-15T04:11:37.163Z,64.93
2017-04-15T04:12:37.181Z,48.75
2017-04-15T04:13:37.259Z,58.85
2017-04-15T04:14:37.501Z,58.27
2017-04-15T04:15:37.653Z,56.33
2017-04-15T04:16:38.081Z,57.70
2017-04-15T04:17:38.850Z,62.10
2017-04-15T04:18:38.937Z,60.27
2017-04-15T04:19:39.113Z,55.73
2017-04-15T04:20:39.232Z,68.63
2017-04-15T04:21:40.454Z,62.52
2017-04-15T04:22:40.530Z,56.23
2017-04-15T04:23:41.311Z,55.82
2017-04-15T04:24:41.450Z,58.82
2017-04-15T04:25:41.673Z,65.23
2017-04-15T04:26:42.028Z,52.58
2017-04-15T04:27:42.244Z,58.90
2017-04-15T04:28:43.064Z,58.00
2017-04-15T04:29:45.939Z,55.27
2017-04-15T04:30:45.993Z,52.28
2017-04-15T04:31:46.430Z,61.40
2017-04-15T04:32:46.605Z,61.80
2017-04-15T04:33:46.685Z,64.07
2017-04-15T04:34:46.917Z,55.80
2017-04-15T04:35:46.918Z,62.32
2017-04-15T04:36:47.342Z,60.52
2017-04-15T04:37:47.360Z,59.08
2017-04-15T04:38:47.394Z,64.72
2017-04-15T04:39:47.423Z,62.17
2017-04-15T04:40:47.577Z,58.67
2017-04-15T04:41:47.962Z,60.57
2017-04-15T04:42:48.832Z,63.55
2017-04-15T04:43:48.855Z,61.42
2017-04-15T04:44:49.054Z,61.00
2017-04-15T04:45:49.148Z,65.20
2017-04-15T04:46:49.531Z,63.77
2017-04-15T04:47:49.526Z,60.52
2017-04-15T04:48:49.653Z,61.13
2017-04-15T04:49:50.425Z,59.98
2017-04-15T04:50:50.840Z,66.12
2017-04-15T04:51:51.174Z,59.33
2017-04-15T04:52:51.334Z,63.12
2017-04-15T04:53:51.413Z,59.60
2017-04-15T04:54:51.406Z,58.78
2017-04-15T04:55:51.455Z,51.85
2017-04-15T04:56:51.859Z,63.30
2017-04-15T04:57:51.866Z,56.10
2017-04-15T04:58:51.928Z,66.63
2017-04-15T04:59:51.922Z,60.38
2017-04-15T05:00:51.986Z,60.83
2017-04-15T05:01:53.109Z,54.32
2017-04-15T05:02:53.150Z,60.48
2017-04-15T05:03:53.162Z,58.98
2017-04-15T05:04:53.191Z,57.45
2017-04-15T05:05:53.265Z,61.72
2017-04-15T05:06:53.643Z,57.08
2017-04-15T05:07:53.697Z,58.08
2017-04-15T05:08:53.702Z,57.82
2017-04-15T05:09:53.784Z,57.52
2017-04-15T05:10:53.963Z,56.08
2017-04-15T05:11:55.013Z,48.03
2017-04-15T05:12:55.785Z,51.73
2017-04-15T05:13:55.960Z,57.57
2017-04-15T05:14:56.743Z,54.12
2017-04-15T05:15:56.747Z,57.73
2017-04-15T05:16:57.095Z,61.73
2017-04-15T05:17:57.857Z,51.68
2017-04-15T05:18:57.900Z,57.18
2017-04-15T05:19:57.922Z,65.48
2017-04-15T05:20:57.898Z,63.38
2017-04-15T05:21:58.246Z,56.23
2017-04-15T05:22:58.250Z,59.63
2017-04-15T05:23:58.218Z,59.73
2017-04-15T05:24:58.254Z,55.20
2017-04-15T05:25:58.257Z,56.25
2017-04-15T05:26:58.576Z,60.85
2017-04-15T05:27:58.692Z,55.23
2017-04-15T05:28:58.795Z,50.68
2017-04-15T05:29:58.804Z,58.03
2017-04-15T05:30:58.819Z,61.63
2017-04-15T05:31:59.126Z,66.53
2017-04-15T05:32:59.210Z,47.15
2017-04-15T05:33:59.306Z,55.93
2017-04-15T05:34:59.398Z,68.43
2017-04-15T05:35:59.479Z,65.87
2017-04-15T05:36:58.770Z,72.37
2017-04-15T05:37:58.863Z,62.78
2017-04-15T05:38:59.647Z,65.52
2017-04-15T05:39:59.758Z,61.55
2017-04-15T05:40:59.767Z,59.17
2017-04-15T05:41:59.756Z,57.42
2017-04-15T05:43:00.132Z,57.65
2017-04-15T05:44:00.941Z,60.32
2017-04-15T05:45:00.969Z,66.38
2017-04-15T05:46:01.759Z,65.93
2017-04-15T05:47:02.777Z,63.02
2017-04-15T05:48:02.862Z,69.55
2017-04-15T05:49:03.024Z,60.23
2017-04-15T05:50:03.145Z,67.13
2017-04-15T05:51:03.266Z,76.35
2017-04-15T05:52:04.044Z,67.95
2017-04-15T05:53:05.233Z,64.98
2017-04-15T05:54:05.301Z,67.85
2017-04-15T05:55:05.384Z,67.42
2017-04-15T05:56:06.155Z,59.57
2017-04-15T05:57:06.179Z,59.80
2017-04-15T05:58:06.528Z,61.55
2017-04-15T05:59:06.566Z,56.82
2017-04-15T06:00:06.639Z,63.47
2017-04-15T06:01:06.691Z,63.45
2017-04-15T06:02:07.449Z,61.15
2017-04-15T06:03:07.907Z,61.27
2017-04-15T06:04:08.059Z,61.12
2017-04-15T06:05:08.161Z,65.00
2017-04-15T06:06:08.897Z,65.58
2017-04-15T06:07:08.934Z,70.07
2017-04-15T06:08:09.298Z,65.65
2017-04-15T06:09:09.412Z,72.00
2017-04-15T06:10:10.141Z,70.42
2017-04-15T06:11:10.894Z,61.95
2017-04-15T06:12:10.935Z,62.68
2017-04-15T06:13:12.080Z,61.12
2017-04-15T06:14:12.102Z,59.72
2017-04-15T06:15:12.187Z,60.57
2017-04-15T06:16:12.186Z,60.27
2017-04-15T06:17:12.225Z,52.88
2017-04-15T06:18:13.258Z,64.82
2017-04-15T06:19:14.135Z,61.75
2017-04-15T06:20:14.274Z,51.52
2017-04-15T06:21:14.321Z,56.27
2017-04-15T06:22:14.346Z,49.43
2017-04-15T06:23:14.713Z,49.82
2017-04-15T06:24:14.695Z,51.57
2017-04-15T06:25:15.505Z,50.38
2017-04-15T06:26:15.534Z,50.58
2017-04-15T06:27:15.553Z,52.10
2017-04-15T06:28:15.881Z,50.67
2017-04-15T06:29:16.650Z,56.77
2017-04-15T06:30:16.699Z,51.85
2017-04-15T06:31:16.822Z,51.67
2017-04-15T06:32:16.881Z,45.87
2017-04-15T06:33:17.406Z,46.73
2017-04-15T06:34:17.387Z,44.13
2017-04-15T06:35:17.491Z,42.75
2017-04-15T06:36:17.529Z,43.68
2017-04-15T06:37:17.697Z,37.65
2017-04-15T06:38:18.139Z,43.40
2017-04-15T06:39:18.302Z,39.88
2017-04-15T06:40:19.143Z,47.53
2017-04-15T06:41:19.131Z,47.30
2017-04-15T06:42:19.117Z,42.08
2017-04-15T06:43:19.574Z,37.95
2017-04-15T06:44:21.034Z,40.58
2017-04-15T06:45:21.057Z,42.07
2017-04-15T06:46:21.082Z,41.17
2017-04-15T06:47:27.585Z,36.58
2017-04-15T06:48:28.382Z,33.93
2017-04-15T06:49:28.450Z,35.90
2017-04-15T06:50:28.438Z,34.90
2017-04-15T06:51:28.497Z,37.50
2017-04-15T06:52:29.156Z,41.67
2017-04-15T06:53:29.551Z,32.77
2017-04-15T06:54:29.554Z,35.10
2017-04-15T06:55:29.733Z,34.58
2017-04-15T06:56:29.846Z,32.35
2017-04-15T06:57:29.909Z,31.08
2017-04-15T06:58:30.345Z,35.42
2017-04-15T06:59:30.372Z,33.87
2017-04-15T07:00:30.433Z,38.12
2017-04-15T07:01:30.554Z,32.85
2017-04-15T07:02:30.573Z,30.65
2017-04-15T07:03:30.945Z,25.95
2017-04-15T07:04:31.163Z,28.53
2017-04-15T07:05:31.931Z,28.83
2017-04-15T07:06:32.037Z,27.02
2017-04-15T07:07:32.075Z,24.42
2017-04-15T07:08:32.638Z,27.18
2017-04-15T07:09:32.804Z,25.12
2017-04-15T07:10:33.158Z,26.70
2017-04-15T07:11:33.915Z,21.22
2017-04-15T07:12:34.051Z,21.38
2017-04-15T07:13:34.580Z,20.02
2017-04-15T07:14:34.620Z,22.70
2017-04-15T07:15:34.648Z,20.07
2017-04-15T07:16:34.672Z,22.90
2017-04-15T07:17:34.997Z,25.27
2017-04-15T07:18:35.462Z,19.92
2017-04-15T07:19:35.545Z,19.22
2017-04-15T07:20:36.548Z,20.87
2017-04-15T07:21:36.632Z,19.67
2017-04-15T07:22:36.699Z,19.13
2017-04-15T07:23:37.019Z,17.30
2017-04-15T07:24:37.822Z,19.03
2017-04-15T07:25:37.870Z,19.42
2017-04-15T07:26:37.905Z,17.48
2017-04-15T07:27:37.967Z,16.03
2017-04-15T07:28:38.382Z,16.82
2017-04-15T07:29:38.517Z,15.73
2017-04-15T07:30:38.897Z,16.72
2017-04-15T07:31:40.696Z,17.28
2017-04-15T07:32:40.790Z,15.53
2017-04-15T07:33:41.178Z,16.77
2017-04-15T07:34:41.254Z,14.25
2017-04-15T07:35:41.370Z,16.30
2017-04-15T07:36:41.451Z,14.55
2017-04-15T07:37:41.503Z,12.15
2017-04-15T07:38:43.076Z,14.88
2017-04-15T07:39:43.175Z,17.47
2017-04-15T07:40:45.018Z,14.32
2017-04-15T07:41:45.163Z,17.60
2017-04-15T07:42:45.230Z,16.28
2017-04-15T07:43:46.363Z,18.37
2017-04-15T07:44:47.291Z,16.10
2017-04-15T07:45:48.093Z,17.97
2017-04-15T07:46:48.138Z,16.07
2017-04-15T07:47:48.225Z,16.57
2017-04-15T07:48:48.642Z,18.18
2017-04-15T07:49:49.602Z,18.25
2017-04-15T07:50:49.674Z,17.15
2017-04-15T07:51:49.806Z,19.83
2017-04-15T07:52:49.934Z,18.52
2017-04-15T07:53:50.523Z,17.72
2017-04-15T07:54:51.428Z,20.58
2017-04-15T07:55:51.501Z,19.18
2017-04-15T07:56:51.560Z,22.92
2017-04-15T07:57:51.599Z,18.28
2017-04-15T07:58:52.097Z,19.23
2017-04-15T07:59:52.262Z,16.72
2017-04-15T08:00:52.461Z,20.68
2017-04-15T08:01:52.517Z,19.83
2017-04-15T08:02:53.334Z,18.68
2017-04-15T08:03:53.631Z,23.70
2017-04-15T08:04:53.787Z,22.18
2017-04-15T08:05:54.005Z,19.17
2017-04-15T08:06:54.232Z,19.60
2017-04-15T08:07:54.282Z,19.45
2017-04-15T08:08:54.839Z,18.97
2017-04-15T08:09:55.036Z,16.65
2017-04-15T08:10:55.769Z,18.35
2017-04-15T08:11:55.909Z,18.45
2017-04-15T08:12:55.995Z,20.33
2017-04-15T08:13:56.374Z,21.90
2017-04-15T08:14:56.382Z,20.97
2017-04-15T08:15:57.212Z,20.93
2017-04-15T08:16:58.025Z,22.05
2017-04-15T08:17:58.082Z,17.50
2017-04-15T08:18:58.562Z,16.93
2017-04-15T08:19:58.673Z,15.73
2017-04-15T08:20:58.814Z,23.88
2017-04-15T08:21:58.861Z,15.27
2017-04-15T08:22:58.967Z,16.30
2017-04-15T08:23:59.410Z,18.40
2017-04-15T08:24:59.906Z,18.18
2017-04-15T08:25:59.951Z,13.92
2017-04-15T08:27:00.024Z,14.67
2017-04-15T08:28:00.207Z,14.98
2017-04-15T08:29:00.578Z,16.13
2017-04-15T08:30:00.591Z,26.67
2017-04-15T08:31:00.672Z,18.40
2017-04-15T08:32:00.726Z,12.52
2017-04-15T08:33:00.944Z,17.90
2017-04-15T08:34:01.833Z,12.92
2017-04-15T08:35:01.966Z,13.92
2017-04-15T08:36:02.009Z,13.25
2017-04-15T08:37:02.083Z,12.00
2017-04-15T08:38:02.176Z,15.88
2017-04-15T08:39:03.330Z,12.70
2017-04-15T08:40:03.409Z,15.70
2017-04-15T08:41:03.693Z,11.03
2017-04-15T08:42:03.792Z,11.93
2017-04-15T08:43:04.672Z,11.08
2017-04-15T08:44:05.183Z,14.60
2017-04-15T08:45:06.549Z,12.65
2017-04-15T08:46:06.607Z,10.27
2017-04-15T08:47:06.980Z,10.52
2017-04-15T08:48:07.251Z,13.62
2017-04-15T08:49:07.775Z,8.92
2017-04-15T08:50:08.596Z,14.25
2017-04-15T08:51:09.433Z,11.25
2017-04-15T08:52:10.205Z,11.63
2017-04-15T08:53:10.298Z,14.10
2017-04-15T08:54:10.803Z,13.92
2017-04-15T08:55:10.789Z,10.75
2017-04-15T08:56:11.614Z,11.03
2017-04-15T08:57:12.382Z,13.13
2017-04-15T08:58:12.410Z,10.40
2017-04-15T08:59:12.841Z,10.07
2017-04-15T09:00:12.968Z,11.27
2017-04-15T09:01:13.985Z,11.33
2017-04-15T09:02:14.148Z,12.58
2017-04-15T09:03:14.129Z,11.95
2017-04-15T09:04:14.534Z,7.58
2017-04-15T09:05:14.710Z,15.12
2017-04-15T09:06:14.708Z,7.57
2017-04-15T09:07:14.843Z,7.48
2017-04-15T09:08:15.037Z,7.57
2017-04-15T09:09:15.477Z,10.12
2017-04-15T09:10:15.939Z,6.77
2017-04-15T09:11:16.115Z,6.88
2017-04-15T09:12:16.248Z,5.27
2017-04-15T09:13:16.387Z,6.03
2017-04-15T09:14:16.844Z,8.13
2017-04-15T09:15:17.052Z,7.27
2017-04-15T09:16:18.437Z,7.93
2017-04-15T09:17:18.635Z,11.10
2017-04-15T09:18:18.726Z,4.98
2017-04-15T09:19:19.117Z,6.25
2017-04-15T09:20:19.287Z,6.78
2017-04-15T09:21:21.770Z,4.02
2017-04-15T09:22:22.018Z,7.50
2017-04-15T09:23:22.160Z,6.05
2017-04-15T09:24:22.547Z,7.12
2017-04-15T09:25:22.608Z,3.05
2017-04-15T09:26:22.678Z,8.60
2017-04-15T09:27:27.556Z,6.53
2017-04-15T09:28:27.696Z,8.48
2017-04-15T09:29:28.104Z,3.73
2017-04-15T09:30:29.065Z,4.77
2017-04-15T09:31:29.375Z,7.43
2017-04-15T09:32:29.526Z,6.17
2017-04-15T09:33:29.663Z,6.98
2017-04-15T09:34:30.310Z,5.83
2017-04-15T09:35:31.104Z,3.72
2017-04-15T09:36:31.289Z,7.58
2017-04-15T09:37:31.397Z,8.03
2017-04-15T09:38:31.815Z,6.15
2017-04-15T09:39:32.253Z,6.23
2017-04-15T09:40:33.195Z,4.57
2017-04-15T09:41:34.101Z,7.55
2017-04-15T09:42:35.490Z,3.12
2017-04-15T09:43:35.793Z,9.52
2017-04-15T09:44:36.223Z,7.22
2017-04-15T09:45:36.301Z,6.10
2017-04-15T09:46:36.380Z,3.37
2017-04-15T09:47:36.567Z,9.47
2017-04-15T09:48:36.753Z,5.35
2017-04-15T09:49:37.130Z,6.55
2017-04-15T09:50:37.258Z,2.58
2017-04-15T09:51:37.343Z,2.70
2017-04-15T09:52:37.388Z,4.78
2017-04-15T09:53:37.478Z,7.02
2017-04-15T09:54:38.010Z,5.83
2017-04-15T09:55:38.079Z,4.18
2017-04-15T09:56:38.140Z,4.92
2017-04-15T09:57:38.371Z,5.58
2017-04-15T09:58:38.448Z,7.10
2017-04-15T09:59:38.951Z,4.33
2017-04-15T10:00:39.046Z,4.35
2017-04-15T10:01:39.223Z,7.82
2017-04-15T10:02:39.353Z,7.27
2017-04-15T10:03:39.453Z,8.37
2017-04-15T10:04:39.960Z,3.10
2017-04-15T10:05:40.146Z,6.38
2017-04-15T10:06:40.242Z,5.88
2017-04-15T10:07:40.272Z,3.55
2017-04-15T10:08:40.374Z,4.20
2017-04-15T10:09:40.713Z,8.75
2017-04-15T10:10:40.791Z,4.83
2017-04-15T10:11:40.844Z,7.95
2017-04-15T10:12:40.967Z,7.45
2017-04-15T10:13:41.099Z,8.40
2017-04-15T10:14:41.686Z,5.47
2017-04-15T10:15:41.877Z,5.20
2017-04-15T10:16:41.949Z,7.27
2017-04-15T10:17:42.090Z,3.47
2017-04-15T10:18:42.189Z,3.78
2017-04-15T10:19:42.624Z,2.93
2017-04-15T10:20:43.685Z,7.57
2017-04-15T10:21:43.737Z,5.27
2017-04-15T10:32:04.000Z,4.25
2017-04-15T10:33:04.169Z,6.75
2017-04-15T10:34:04.901Z,9.22
2017-04-15T10:35:04.965Z,3.32
2017-04-15T10:36:05.396Z,4.23
2017-04-15T10:37:05.790Z,4.72
2017-04-15T10:38:06.618Z,1.93
2017-04-15T10:39:07.576Z,7.43
2017-04-15T10:40:07.818Z,8.62
2017-04-15T10:41:08.185Z,3.97
2017-04-15T10:42:08.339Z,6.48
2017-04-15T10:43:12.541Z,3.55
2017-04-15T10:44:12.549Z,4.12
2017-04-15T10:45:12.829Z,4.13
2017-04-15T10:46:13.203Z,3.35
2017-04-15T10:47:13.344Z,3.87
2017-04-15T10:48:14.421Z,6.10
2017-04-15T10:49:15.067Z,8.67
2017-04-15T10:50:16.969Z,4.60
2017-04-15T10:51:17.519Z,5.45
2017-04-15T10:52:18.653Z,10.80
2017-04-15T10:53:18.746Z,3.57
2017-04-15T10:54:18.777Z,6.95
2017-04-15T10:55:18.843Z,6.70
2017-04-15T10:56:19.234Z,7.23
2017-04-15T10:57:19.399Z,4.87
2017-04-15T10:58:19.527Z,4.60
2017-04-15T10:59:19.634Z,9.45
2017-04-15T11:00:19.857Z,4.50
2017-04-15T11:01:20.286Z,10.30
2017-04-15T11:02:21.299Z,7.38
2017-04-15T11:03:21.519Z,10.03
2017-04-15T11:04:21.718Z,9.77
2017-04-15T11:05:22.154Z,9.17
2017-04-15T11:06:23.632Z,12.88
2017-04-15T11:07:23.893Z,7.95
2017-04-15T11:08:30.706Z,3.37
2017-04-15T11:09:37.204Z,8.97
2017-04-15T11:10:37.348Z,5.45
2017-04-15T11:11:38.582Z,11.12
2017-04-15T11:13:02.868Z,9.17
2017-04-15T11:14:08.315Z,9.47
2017-04-15T11:15:08.812Z,5.57
2017-04-15T11:16:08.946Z,6.08
2017-04-15T11:17:09.469Z,5.18
2017-04-15T11:18:13.312Z,5.57
2017-04-15T11:19:13.977Z,5.77
2017-04-15T11:20:14.035Z,10.22
2017-04-15T11:21:14.918Z,4.52
2017-04-15T11:22:15.118Z,8.23
2017-04-15T11:23:17.388Z,9.38
2017-04-15T11:24:17.691Z,4.73
2017-04-15T11:25:17.860Z,4.20
2017-04-15T11:26:17.949Z,8.25
2017-04-15T11:27:18.430Z,5.32
2017-04-15T11:28:18.639Z,6.75
2017-04-15T11:29:18.681Z,4.37
2017-04-15T11:30:19.251Z,5.27
2017-04-15T11:31:19.323Z,6.20
2017-04-15T11:32:19.878Z,15.00
2017-04-15T11:33:20.055Z,3.08
2017-04-15T11:34:20.091Z,6.42
2017-04-15T11:35:20.906Z,9.67
2017-04-15T11:36:20.953Z,4.88
2017-04-15T11:37:21.566Z,6.38
2017-04-15T11:38:22.487Z,8.60
2017-04-15T11:39:22.657Z,8.62
2017-04-15T11:40:22.682Z,6.07
2017-04-15T11:41:22.770Z,3.13
2017-04-15T11:42:23.209Z,4.82
2017-04-15T11:43:23.372Z,6.98
2017-04-15T11:44:23.422Z,9.10
2017-04-15T11:45:23.555Z,4.58
2017-04-15T11:46:23.721Z,6.90
2017-04-15T11:47:24.109Z,6.07
2017-04-15T11:48:24.154Z,6.28
2017-04-15T11:49:24.190Z,6.03
2017-04-15T11:50:24.301Z,4.22
2017-04-15T11:51:24.447Z,6.83
2017-04-15T11:52:24.990Z,10.43
2017-04-15T11:53:25.079Z,3.02
2017-04-15T11:54:25.250Z,9.35
2017-04-15T11:55:25.317Z,7.20
2017-04-15T11:56:25.370Z,10.67
2017-04-15T11:57:25.767Z,8.53
2017-04-15T11:58:26.642Z,3.82
2017-04-15T11:59:26.701Z,3.65
2017-04-15T12:00:26.836Z,5.25
2017-04-15T12:01:26.914Z,7.25
2017-04-15T12:02:27.732Z,5.48
2017-04-15T12:03:27.993Z,4.05
2017-04-15T12:04:28.104Z,4.65
2017-04-15T12:05:28.139Z,5.98
2017-04-15T12:06:28.301Z,6.55
2017-04-15T12:07:28.799Z,7.57
2017-04-15T12:08:29.602Z,6.08
2017-04-15T12:09:29.714Z,10.88
2017-04-15T12:10:29.757Z,4.47
2017-04-15T12:11:29.997Z,12.58
2017-04-15T12:12:30.478Z,6.85
2017-04-15T12:13:30.596Z,6.00
2017-04-15T12:14:30.694Z,3.82
2017-04-15T12:15:31.590Z,5.57
2017-04-15T12:16:31.692Z,5.83
2017-04-15T12:17:32.182Z,2.07
2017-04-15T12:18:32.273Z,1.92
2017-04-15T12:19:32.353Z,3.80
2017-04-15T12:20:32.394Z,6.63
2017-04-15T12:21:32.471Z,8.23
2017-04-15T12:22:32.989Z,6.58
2017-04-15T12:23:33.074Z,3.85
2017-04-15T12:24:33.218Z,9.38
2017-04-15T12:25:33.270Z,3.65
2017-04-15T12:26:33.414Z,5.52
2017-04-15T12:27:33.846Z,4.87
2017-04-15T12:28:33.926Z,5.65
2017-04-15T12:29:34.053Z,4.90
2017-04-15T12:30:34.216Z,9.82
2017-04-15T12:31:34.328Z,6.02
2017-04-15T12:32:35.101Z,7.82
2017-04-15T12:33:35.368Z,2.42
2017-04-15T12:34:35.967Z,3.75
2017-04-15T12:35:36.115Z,5.42
2017-04-15T12:36:36.200Z,7.80
2017-04-15T12:37:36.735Z,10.03
2017-04-15T12:38:37.195Z,5.63
2017-04-15T12:39:38.025Z,6.73
2017-04-15T12:40:38.082Z,5.67
2017-04-15T12:41:38.881Z,17.07
2017-04-15T12:42:39.211Z,6.93
2017-04-15T12:43:39.434Z,5.67
2017-04-15T12:44:39.590Z,10.53
2017-04-15T12:45:40.411Z,9.58
2017-04-15T12:46:41.283Z,12.72
2017-04-15T12:47:41.681Z,9.45
2017-04-15T12:48:41.745Z,10.02
2017-04-15T12:49:42.567Z,5.63
2017-04-15T12:50:42.733Z,9.23
2017-04-15T12:51:42.879Z,15.13
2017-04-15T12:52:43.263Z,7.18
2017-04-15T12:53:43.855Z,11.92
2017-04-15T12:54:44.050Z,8.97
2017-04-15T12:55:44.146Z,14.80
2017-04-15T12:56:44.218Z,10.88
2017-04-15T12:57:44.866Z,4.17
2017-04-15T12:58:45.003Z,6.03
2017-04-15T12:59:45.781Z,6.58
2017-04-15T13:00:45.862Z,5.78
2017-04-15T13:01:45.922Z,8.07
2017-04-15T13:02:46.368Z,7.37
2017-04-15T13:03:46.544Z,10.13
2017-04-15T13:04:46.652Z,8.23
2017-04-15T13:05:46.731Z,6.68
2017-04-15T13:06:46.827Z,7.08
2017-04-15T13:07:47.643Z,7.12
2017-04-15T13:08:47.730Z,10.15
2017-04-15T13:09:47.743Z,10.13
2017-04-15T13:10:47.897Z,5.87
2017-04-15T13:11:48.002Z,7.82
2017-04-15T13:12:48.447Z,10.00
2017-04-15T13:13:48.648Z,6.27